This is the latest recevied weather packets stored in our database for station/object MM9SQL. If no packets are shown the sender has not sent any weather packets the latest 10 day(s).
| Time | Temp. | Humidity | Pressure | Rain* | Wind** | Luminosity | Snow |
|---|---|---|---|---|---|---|---|
| 1777995910 | 9.44° C | 45% | 1018 hPa | 0 mm | - | - | - |
| 1777995604 | 9.44° C | 46% | 1018 hPa | 0 mm | - | - | - |
| 1777992603 | 10° C | 46% | 1018.1 hPa | 0 mm | - | - | - |
| 1777989906 | 8.89° C | 54% | 1018 hPa | 0 mm | - | - | - |
| 1777989615 | 8.89° C | 54% | 1018 hPa | 0 mm | - | - | - |
| 1777986604 | 8.33° C | 55% | 1018 hPa | 0 mm | - | - | - |
| 1777985117 | 7.78° C | 59% | 1018 hPa | 0 mm | - | - | - |
| 1777984808 | 7.78° C | 62% | 1018 hPa | 0 mm | - | - | - |
| 1777981803 | 7.78° C | 60% | 1018 hPa | 0 mm | - | - | - |
| 1777980908 | 7.78° C | 64% | 1018.1 hPa | 0 mm | - | - | - |
| 1777980616 | 7.78° C | 66% | 1018 hPa | 0 mm | - | - | - |
| 1777980310 | 7.22° C | 66% | 1018.1 hPa | 0 mm | - | - | - |
| 1777978504 | 7.22° C | 62% | 1018 hPa | 0 mm | - | - | - |
| 1777977030 | 6.67° C | 72% | 1017.8 hPa | 0 mm | - | - | - |
| 1777976103 | 6.11° C | 75% | 1017.9 hPa | 0 mm | - | - | - |
| 1777975503 | 6.67° C | 73% | 1017.8 hPa | 0 mm | - | - | - |
| 1777973704 | 7.22° C | 66% | 1017.4 hPa | 0 mm | - | - | - |
| 1777972209 | 6.67° C | 68% | 1017.4 hPa | 0 mm | - | - | - |
| 1777971636 | 6.67° C | 69% | 1017.3 hPa | 0 mm | - | - | - |
| 1777970404 | 6.67° C | 69% | 1017.3 hPa | 0 mm | - | - | - |
| 1777966505 | 5.56° C | 78% | 1016.5 hPa | 0 mm | - | - | - |
| 1777964414 | 5.56° C | 83% | 1016.2 hPa | 0 mm | - | - | - |
| 1777963206 | 5° C | 87% | 1016 hPa | 0 mm | - | - | - |
| 1777961705 | 5.56° C | 89% | 1015.6 hPa | 0 mm | - | - | - |
| 1777961103 | 5.56° C | 89% | 1015.4 hPa | 0 mm | - | - | - |
* Rain latest hour (hover to see other rain measurements)
** Current wind speed in m/s (hover to see current wind gust speed)